Time;durP1;ratioP1;P1;durP2;ratioP2;P2;SDS_P1;SDS_P2;PMS_P1;PMS_P2;Temp;Humidity;BMP_temperature;BMP_pressure;BME280_temperature;BME280_humidity;BME280_pressure;Samples;Min_cycle;Max_cycle;Signal;HPM_P1;HPM_P2
2021/12/06 00:00:23;;;;;;;;;2.00;2.00;;;;;;;;5085552;28;45446;-83
2021/12/06 00:02:49;;;;;;;;;1.00;1.00;;;;;;;;5070975;28;45250;-83
2021/12/06 00:05:15;;;;;;;;;2.00;1.00;;;;;;;;5064990;28;45371;-84
2021/12/06 00:07:41;;;;;;;;;1.25;1.25;;;;;;;;5056459;28;48303;-84
2021/12/06 00:10:07;;;;;;;;;2.00;2.00;;;;;;;;5071063;28;45001;-84
2021/12/06 00:12:33;;;;;;;;;1.25;1.00;;;;;;;;5070887;28;45092;-83
2021/12/06 00:14:58;;;;;;;;;2.25;2.25;;;;;;;;5071252;28;45369;-83
2021/12/06 00:17:24;;;;;;;;;2.25;1.25;;;;;;;;5069447;28;46515;-83
2021/12/06 00:19:49;;;;;;;;;2.00;2.00;;;;;;;;5071058;28;45119;-84
2021/12/06 00:22:16;;;;;;;;;2.50;2.00;;;;;;;;5053282;28;45418;-83
2021/12/06 00:24:41;;;;;;;;;2.00;2.00;;;;;;;;5071417;28;45443;-84
2021/12/06 00:27:07;;;;;;;;;2.00;2.00;;;;;;;;5071134;28;45725;-84
2021/12/06 00:29:32;;;;;;;;;2.00;2.00;;;;;;;;5051962;28;45445;-83
2021/12/06 00:31:58;;;;;;;;;3.67;3.00;;;;;;;;5052495;28;45392;-83
2021/12/06 00:34:25;;;;;;;;;2.75;2.75;;;;;;;;5073305;28;45220;-83
2021/12/06 00:37:05;;;;;;;;;3.00;2.00;;;;;;;;5055974;28;47460;-84
2021/12/06 00:39:30;;;;;;;;;2.50;1.75;;;;;;;;5065347;28;45360;-83
2021/12/06 00:41:55;;;;;;;;;2.00;2.00;;;;;;;;5079522;28;45063;-83
2021/12/06 00:44:21;;;;;;;;;1.33;1.33;;;;;;;;5085162;28;45637;-83
2021/12/06 00:46:46;;;;;;;;;1.75;1.75;;;;;;;;5088980;28;45762;-84
2021/12/06 00:49:11;;;;;;;;;3.33;2.67;;;;;;;;5087285;28;44993;-84
2021/12/06 00:51:37;;;;;;;;;3.00;2.00;;;;;;;;5083833;28;45186;-83
2021/12/06 00:54:02;;;;;;;;;2.00;1.50;;;;;;;;5071136;28;45405;-84
2021/12/06 00:56:27;;;;;;;;;3.00;3.00;;;;;;;;5066879;28;47367;-83
2021/12/06 00:58:53;;;;;;;;;3.00;3.00;;;;;;;;5063458;28;45118;-83
2021/12/06 01:01:18;;;;;;;;;2.00;2.00;;;;;;;;5076669;28;45398;-84
2021/12/06 01:03:43;;;;;;;;;1.00;1.00;;;;;;;;5063489;28;45663;-84
2021/12/06 01:06:09;;;;;;;;;3.00;3.00;;;;;;;;5087314;28;45770;-84
2021/12/06 01:08:35;;;;;;;;;2.75;2.00;;;;;;;;5066064;28;45783;-83
2021/12/06 01:11:00;;;;;;;;;3.00;2.75;;;;;;;;5058715;28;45455;-83
2021/12/06 01:13:26;;;;;;;;;2.00;2.00;;;;;;;;5071690;28;45427;-83
2021/12/06 01:15:51;;;;;;;;;2.75;2.75;;;;;;;;5080242;28;48086;-84
2021/12/06 01:18:21;;;;;;;;;4.67;2.33;;;;;;;;5059940;28;45523;-84
2021/12/06 01:23:56;;;;;;;;;3.50;3.00;;;;;;;;5022068;28;45358;-84
2021/12/06 01:39:48;;;;;;;;;3.25;3.00;;;;;;;;5071620;28;45894;-84
2021/12/06 01:42:14;;;;;;;;;5.25;2.75;;;;;;;;5052459;28;45821;-84
2021/12/06 01:44:40;;;;;;;;;2.00;2.00;;;;;;;;5072608;28;45401;-84
2021/12/06 01:47:06;;;;;;;;;5.00;3.50;;;;;;;;5072296;28;45694;-84
2021/12/06 01:49:34;;;;;;;;;2.67;2.67;;;;;;;;5076461;28;45430;-83
2021/12/06 01:52:01;;;;;;;;;2.00;2.00;;;;;;;;5070596;28;45529;-84
2021/12/06 01:54:26;;;;;;;;;2.75;2.00;;;;;;;;5069937;28;45366;-84
2021/12/06 01:56:52;;;;;;;;;6.25;5.00;;;;;;;;5056334;28;48073;-84
2021/12/06 01:59:18;;;;;;;;;4.75;3.00;;;;;;;;5054610;28;45904;-84
2021/12/06 02:01:43;;;;;;;;;1.50;1.25;;;;;;;;5066784;28;45407;-84
2021/12/06 02:04:09;;;;;;;;;2.50;2.50;;;;;;;;5078543;28;45569;-84
2021/12/06 02:06:35;;;;;;;;;2.50;2.50;;;;;;;;5079039;28;45811;-84
2021/12/06 02:09:00;;;;;;;;;2.00;1.75;;;;;;;;5047190;28;46204;-84
2021/12/06 02:11:28;;;;;;;;;3.00;2.50;;;;;;;;5066480;28;45577;-84
2021/12/06 02:14:03;;;;;;;;;2.50;2.25;;;;;;;;5058615;28;45613;-84
2021/12/06 02:16:43;;;;;;;;;2.00;2.00;;;;;;;;5053927;28;47169;-83
2021/12/06 02:19:09;;;;;;;;;2.00;2.00;;;;;;;;5077850;28;45554;-83
2021/12/06 02:21:37;;;;;;;;;3.75;3.00;;;;;;;;5060141;28;45688;-84
2021/12/06 02:24:05;;;;;;;;;2.00;2.00;;;;;;;;5073463;28;45160;-84
2021/12/06 02:26:31;;;;;;;;;3.00;2.75;;;;;;;;5065128;28;47478;-84
2021/12/06 02:28:56;;;;;;;;;3.67;3.67;;;;;;;;5080480;28;45449;-84
2021/12/06 02:31:23;;;;;;;;;3.33;3.00;;;;;;;;5087169;28;45213;-84
2021/12/06 02:33:51;;;;;;;;;3.00;3.00;;;;;;;;5085799;28;44847;-83
2021/12/06 02:36:17;;;;;;;;;2.00;2.00;;;;;;;;5058563;28;47590;-83
2021/12/06 02:38:43;;;;;;;;;2.00;2.00;;;;;;;;5060452;28;45369;-83
2021/12/06 02:41:09;;;;;;;;;2.75;2.00;;;;;;;;5091444;28;44983;-83
2021/12/06 02:43:35;;;;;;;;;4.00;3.75;;;;;;;;5072555;28;45262;-83
2021/12/06 02:46:00;;;;;;;;;3.00;3.00;;;;;;;;5091048;28;45631;-84
2021/12/06 02:48:25;;;;;;;;;2.00;2.00;;;;;;;;5054643;28;45000;-84
2021/12/06 02:50:52;;;;;;;;;3.00;2.00;;;;;;;;5052526;28;45262;-84
2021/12/06 02:53:19;;;;;;;;;2.00;2.00;;;;;;;;5070744;28;45379;-84
2021/12/06 02:55:51;;;;;;;;;6.00;3.50;;;;;;;;5052355;28;46575;-84
2021/12/06 02:58:33;;;;;;;;;5.00;3.50;;;;;;;;5055091;28;45542;-84
2021/12/06 03:00:59;;;;;;;;;4.50;3.25;;;;;;;;5042425;28;45572;-83
2021/12/06 03:03:24;;;;;;;;;4.00;3.75;;;;;;;;5070599;28;45348;-84
2021/12/06 03:05:51;;;;;;;;;6.00;6.00;;;;;;;;5046387;28;48159;-83
2021/12/06 03:08:38;;;;;;;;;3.50;3.50;;;;;;;;5035712;28;45768;-84
2021/12/06 03:11:05;;;;;;;;;2.00;2.00;;;;;;;;5047518;28;45421;-83
2021/12/06 03:13:30;;;;;;;;;3.00;3.00;;;;;;;;5045861;28;45053;-84
2021/12/06 03:15:55;;;;;;;;;2.67;2.67;;;;;;;;5062408;28;45290;-84
2021/12/06 03:18:20;;;;;;;;;6.00;4.00;;;;;;;;5040720;28;45561;-84
2021/12/06 03:20:46;;;;;;;;;6.00;3.00;;;;;;;;5055308;28;45759;-83
2021/12/06 03:23:11;;;;;;;;;4.00;4.00;;;;;;;;5047063;28;45627;-84
2021/12/06 03:25:36;;;;;;;;;3.00;3.00;;;;;;;;5046310;28;47926;-83
2021/12/06 03:28:03;;;;;;;;;2.50;2.50;;;;;;;;5053124;28;45546;-83
2021/12/06 03:30:28;;;;;;;;;3.25;3.25;;;;;;;;5065927;28;45414;-84
2021/12/06 03:32:53;;;;;;;;;5.00;4.00;;;;;;;;5040193;28;45435;-84
2021/12/06 03:35:18;;;;;;;;;5.00;4.50;;;;;;;;5035187;28;47303;-84
2021/12/06 03:37:44;;;;;;;;;6.00;4.67;;;;;;;;5036250;28;46344;-83
2021/12/06 03:40:10;;;;;;;;;5.00;4.25;;;;;;;;5036769;28;45590;-83
2021/12/06 03:42:36;;;;;;;;;6.25;6.25;;;;;;;;5032578;28;45700;-84
2021/12/06 03:45:03;;;;;;;;;7.00;5.75;;;;;;;;5040870;28;47250;-84
2021/12/06 03:47:30;;;;;;;;;6.00;4.00;;;;;;;;5034356;28;45832;-84
2021/12/06 03:49:56;;;;;;;;;3.00;3.00;;;;;;;;5056500;28;45536;-84
2021/12/06 03:52:22;;;;;;;;;6.50;5.50;;;;;;;;5068300;28;45657;-84
2021/12/06 03:54:49;;;;;;;;;4.50;3.25;;;;;;;;5051297;28;47909;-84
2021/12/06 03:57:14;;;;;;;;;6.50;5.00;;;;;;;;5068641;28;45161;-84
2021/12/06 03:59:39;;;;;;;;;6.00;4.00;;;;;;;;5068382;28;45146;-83
2021/12/06 04:02:05;;;;;;;;;7.00;4.00;;;;;;;;5051836;28;45128;-84
2021/12/06 04:04:30;;;;;;;;;6.50;5.00;;;;;;;;5044397;28;46998;-84
2021/12/06 04:06:55;;;;;;;;;4.00;4.00;;;;;;;;5069190;28;45298;-83
2021/12/06 04:09:21;;;;;;;;;5.50;5.50;;;;;;;;5047448;28;45386;-83
2021/12/06 04:11:47;;;;;;;;;7.25;6.00;;;;;;;;5051392;28;45281;-83
2021/12/06 04:14:13;;;;;;;;;5.00;4.00;;;;;;;;5069366;28;45411;-83
2021/12/06 04:16:38;;;;;;;;;5.50;5.50;;;;;;;;5058157;28;45754;-83
2021/12/06 04:19:04;;;;;;;;;7.00;6.00;;;;;;;;5067520;28;45077;-83
2021/12/06 04:21:30;;;;;;;;;7.00;6.50;;;;;;;;5048908;28;45259;-82
2021/12/06 04:23:56;;;;;;;;;6.00;4.00;;;;;;;;5048755;28;47139;-83
2021/12/06 04:26:21;;;;;;;;;4.50;4.50;;;;;;;;5068716;28;45216;-83
2021/12/06 04:28:58;;;;;;;;;8.00;7.75;;;;;;;;5067056;28;45138;-83
2021/12/06 04:31:23;;;;;;;;;4.50;4.50;;;;;;;;5065756;28;45367;-83
2021/12/06 04:33:49;;;;;;;;;7.67;6.67;;;;;;;;5067792;28;45407;-83
2021/12/06 04:36:14;;;;;;;;;11.67;8.00;;;;;;;;5066445;28;45455;-83
2021/12/06 04:38:39;;;;;;;;;4.67;4.67;;;;;;;;5048896;28;45388;-84
2021/12/06 04:41:04;;;;;;;;;7.00;6.00;;;;;;;;5064718;28;45403;-84
2021/12/06 04:43:30;;;;;;;;;4.00;4.00;;;;;;;;5049548;28;47157;-84
2021/12/06 04:45:55;;;;;;;;;8.00;7.00;;;;;;;;5064485;28;45441;-83
2021/12/06 04:48:21;;;;;;;;;6.67;6.00;;;;;;;;5064734;28;45205;-83
2021/12/06 04:50:46;;;;;;;;;8.00;8.00;;;;;;;;5079867;28;45509;-84
2021/12/06 04:53:20;;;;;;;;;7.00;6.00;;;;;;;;5066830;28;47815;-83
2021/12/06 04:55:48;;;;;;;;;7.00;7.00;;;;;;;;5088721;28;45224;-83
2021/12/06 04:58:16;;;;;;;;;9.00;7.50;;;;;;;;5066984;28;45482;-84
2021/12/06 05:00:46;;;;;;;;;7.50;7.00;;;;;;;;5070801;28;45270;-84
2021/12/06 05:03:12;;;;;;;;;7.00;7.00;;;;;;;;5087479;28;45857;-84
2021/12/06 05:05:40;;;;;;;;;7.50;6.50;;;;;;;;5082504;28;45394;-83
2021/12/06 05:08:17;;;;;;;;;6.00;6.00;;;;;;;;5088647;28;45168;-84
2021/12/06 05:10:42;;;;;;;;;6.50;5.50;;;;;;;;5070540;28;45123;-84
2021/12/06 05:13:07;;;;;;;;;8.00;7.00;;;;;;;;5070033;28;47814;-84
2021/12/06 05:15:33;;;;;;;;;7.00;6.25;;;;;;;;5087908;28;45138;-83
2021/12/06 05:17:58;;;;;;;;;8.75;4.50;;;;;;;;5067142;28;45153;-84
2021/12/06 05:20:23;;;;;;;;;4.67;4.67;;;;;;;;5065040;28;45546;-84
2021/12/06 05:22:49;;;;;;;;;7.00;6.50;;;;;;;;5060086;28;46867;-84
2021/12/06 05:25:14;;;;;;;;;8.50;8.50;;;;;;;;5087723;28;44987;-84
2021/12/06 05:27:40;;;;;;;;;9.00;8.50;;;;;;;;5083241;28;45231;-84
2021/12/06 05:30:06;;;;;;;;;6.25;6.25;;;;;;;;5066242;28;45356;-84
2021/12/06 05:32:34;;;;;;;;;11.00;9.00;;;;;;;;5088131;28;47119;-84
2021/12/06 05:35:07;;;;;;;;;6.00;6.00;;;;;;;;5086824;28;45473;-84
2021/12/06 05:37:38;;;;;;;;;7.25;7.00;;;;;;;;5088810;28;45173;-84
2021/12/06 05:40:06;;;;;;;;;6.00;6.00;;;;;;;;5049235;28;45233;-84
2021/12/06 05:42:31;;;;;;;;;6.50;6.25;;;;;;;;5068304;28;45839;-84
2021/12/06 05:44:57;;;;;;;;;6.75;6.75;;;;;;;;5088482;28;45156;-84
2021/12/06 05:47:22;;;;;;;;;7.00;7.00;;;;;;;;5081107;28;45456;-83
2021/12/06 05:49:47;;;;;;;;;2.33;1.67;;;;;;;;5075774;28;45695;-83
2021/12/06 05:52:12;;;;;;;;;6.25;6.25;;;;;;;;5083056;28;46445;-84
2021/12/06 05:54:38;;;;;;;;;8.00;7.00;;;;;;;;5081707;28;45354;-84
2021/12/06 05:57:05;;;;;;;;;7.50;6.75;;;;;;;;5088882;28;45172;-83
2021/12/06 05:59:30;;;;;;;;;6.75;6.50;;;;;;;;5069494;28;45511;-84
2021/12/06 06:01:56;;;;;;;;;6.75;6.00;;;;;;;;5086992;28;45337;-84
2021/12/06 06:04:21;;;;;;;;;6.67;6.33;;;;;;;;5052409;28;45443;-84
2021/12/06 06:06:47;;;;;;;;;9.00;7.00;;;;;;;;5083932;28;45414;-84
2021/12/06 06:09:13;;;;;;;;;8.00;8.00;;;;;;;;5081043;28;45124;-84
2021/12/06 06:11:40;;;;;;;;;9.00;7.00;;;;;;;;5061756;28;47413;-84
2021/12/06 06:14:05;;;;;;;;;9.00;7.75;;;;;;;;5058786;28;46000;-84
2021/12/06 06:16:35;;;;;;;;;8.25;6.50;;;;;;;;5044129;28;45281;-83
2021/12/06 06:19:00;;;;;;;;;6.50;6.25;;;;;;;;5066886;28;45240;-84
2021/12/06 06:21:25;;;;;;;;;10.00;7.00;;;;;;;;5087417;28;45754;-84
2021/12/06 06:23:51;;;;;;;;;8.33;8.00;;;;;;;;5088567;28;45368;-84
2021/12/06 06:26:16;;;;;;;;;9.75;7.75;;;;;;;;5069300;28;45155;-83
2021/12/06 06:28:41;;;;;;;;;8.00;8.00;;;;;;;;5088317;28;45149;-83
2021/12/06 06:31:07;;;;;;;;;7.00;7.00;;;;;;;;5087916;28;45687;-83
2021/12/06 06:33:32;;;;;;;;;7.33;7.33;;;;;;;;5069339;28;45147;-83
2021/12/06 06:35:57;;;;;;;;;9.00;8.33;;;;;;;;5088424;28;44973;-83
2021/12/06 06:38:26;;;;;;;;;6.33;6.33;;;;;;;;5052770;28;45465;-84
2021/12/06 06:40:55;;;;;;;;;7.25;7.25;;;;;;;;5052651;28;47235;-82
2021/12/06 06:43:20;;;;;;;;;8.00;7.25;;;;;;;;5073912;28;45461;-82
2021/12/06 06:45:45;;;;;;;;;8.00;8.00;;;;;;;;5072673;28;45387;-82
2021/12/06 06:48:11;;;;;;;;;6.33;6.00;;;;;;;;5053764;28;45605;-82
2021/12/06 06:50:36;;;;;;;;;8.00;8.00;;;;;;;;5074109;28;46406;-82
2021/12/06 06:53:02;;;;;;;;;9.25;8.25;;;;;;;;5052822;28;45574;-84
2021/12/06 06:55:27;;;;;;;;;12.25;12.00;;;;;;;;5071261;28;45529;-83
2021/12/06 06:57:52;;;;;;;;;6.00;6.00;;;;;;;;5054795;28;45261;-84
2021/12/06 07:00:20;;;;;;;;;8.00;7.00;;;;;;;;5053690;28;47501;-83
2021/12/06 07:02:45;;;;;;;;;7.25;7.00;;;;;;;;5071755;28;45492;-83
2021/12/06 07:05:13;;;;;;;;;10.50;9.00;;;;;;;;5053387;28;45329;-84
2021/12/06 07:07:38;;;;;;;;;15.25;13.00;;;;;;;;5071588;28;45381;-83
2021/12/06 07:10:05;;;;;;;;;12.00;8.67;;;;;;;;5071781;28;46253;-83
2021/12/06 07:12:30;;;;;;;;;14.25;13.75;;;;;;;;5072689;28;45497;-85
2021/12/06 07:14:55;;;;;;;;;16.50;13.00;;;;;;;;5072693;28;45498;-84
2021/12/06 07:17:21;;;;;;;;;11.67;11.33;;;;;;;;5053283;28;45407;-84
2021/12/06 07:19:46;;;;;;;;;13.25;12.00;;;;;;;;5054729;28;46352;-84
2021/12/06 07:22:11;;;;;;;;;14.00;11.67;;;;;;;;5055776;28;46016;-85
2021/12/06 07:24:37;;;;;;;;;16.00;11.00;;;;;;;;5053389;28;45478;-83
2021/12/06 07:27:02;;;;;;;;;13.25;11.00;;;;;;;;5075052;28;45409;-84
2021/12/06 07:29:32;;;;;;;;;13.00;12.00;;;;;;;;5089565;28;45341;-84
2021/12/06 07:31:58;;;;;;;;;9.75;9.75;;;;;;;;5071582;28;45696;-85
2021/12/06 07:34:23;;;;;;;;;8.00;7.00;;;;;;;;5059716;28;45450;-84
2021/12/06 07:36:48;;;;;;;;;7.00;6.67;;;;;;;;5071300;28;45249;-85
2021/12/06 07:39:13;;;;;;;;;9.25;7.50;;;;;;;;5071259;28;47072;-83
2021/12/06 07:41:39;;;;;;;;;8.00;7.33;;;;;;;;5084871;28;45244;-86
2021/12/06 07:44:04;;;;;;;;;12.00;8.00;;;;;;;;5075555;28;45477;-83
2021/12/06 07:46:30;;;;;;;;;8.00;8.00;;;;;;;;5065573;28;45693;-82
2021/12/06 07:48:55;;;;;;;;;8.00;8.00;;;;;;;;5067078;28;47307;-88
2021/12/06 07:51:21;;;;;;;;;11.33;11.33;;;;;;;;5042440;28;45501;-87
2021/12/06 07:53:47;;;;;;;;;13.00;12.25;;;;;;;;5054336;28;45758;-87
2021/12/06 07:56:12;;;;;;;;;12.25;11.25;;;;;;;;5058560;28;45075;-94
2021/12/06 07:58:38;;;;;;;;;13.75;12.75;;;;;;;;5057392;28;47047;-83
2021/12/06 08:01:03;;;;;;;;;15.00;13.50;;;;;;;;5072726;28;45457;-82
2021/12/06 08:03:30;;;;;;;;;11.00;9.67;;;;;;;;5074854;28;45331;-82
2021/12/06 08:05:56;;;;;;;;;11.50;10.25;;;;;;;;5078716;28;45465;-83
2021/12/06 08:08:24;;;;;;;;;11.50;10.25;;;;;;;;5080115;28;45447;-82
2021/12/06 08:10:51;;;;;;;;;11.25;9.00;;;;;;;;5083415;28;45908;-82
2021/12/06 08:13:17;;;;;;;;;9.50;9.00;;;;;;;;5079029;28;45541;-82
2021/12/06 08:15:43;;;;;;;;;8.75;8.25;;;;;;;;5071393;28;45493;-83
2021/12/06 08:18:09;;;;;;;;;13.00;11.50;;;;;;;;5075273;28;46182;-83
2021/12/06 08:20:35;;;;;;;;;15.50;14.50;;;;;;;;5053381;28;45603;-83
2021/12/06 08:23:00;;;;;;;;;17.00;13.00;;;;;;;;5054845;28;45575;-83
2021/12/06 08:25:26;;;;;;;;;13.00;11.25;;;;;;;;5055008;28;45555;-83
2021/12/06 08:27:51;;;;;;;;;13.00;10.33;;;;;;;;5076546;28;45431;-83
2021/12/06 08:30:21;;;;;;;;;11.50;9.25;;;;;;;;5071694;28;45830;-83
2021/12/06 08:32:48;;;;;;;;;12.00;10.50;;;;;;;;5071128;28;45473;-86
2021/12/06 08:35:13;;;;;;;;;11.25;8.50;;;;;;;;5070617;28;45475;-84
2021/12/06 08:37:38;;;;;;;;;12.67;11.67;;;;;;;;5052588;28;47586;-83
2021/12/06 08:40:04;;;;;;;;;12.25;11.00;;;;;;;;5071390;28;45338;-83
2021/12/06 08:42:29;;;;;;;;;12.50;11.50;;;;;;;;5071702;28;45489;-84
2021/12/06 08:44:54;;;;;;;;;13.33;13.00;;;;;;;;5071458;28;45856;-87
2021/12/06 08:47:20;;;;;;;;;13.00;12.67;;;;;;;;5071220;28;45490;-87
2021/12/06 08:49:45;;;;;;;;;14.75;12.25;;;;;;;;5052110;28;46081;-85
2021/12/06 08:52:11;;;;;;;;;6.75;5.00;;;;;;;;5052078;28;45597;-83
2021/12/06 08:54:36;;;;;;;;;15.75;15.00;;;;;;;;5070642;28;45347;-81
2021/12/06 08:57:03;;;;;;;;;9.75;9.50;;;;;;;;5070606;28;46725;-83
2021/12/06 08:59:28;;;;;;;;;11.25;10.25;;;;;;;;5055993;28;46187;-82
2021/12/06 09:01:57;;;;;;;;;9.25;9.25;;;;;;;;5057591;28;45466;-87
2021/12/06 09:04:23;;;;;;;;;9.25;7.75;;;;;;;;5066442;28;45486;-86
2021/12/06 09:06:51;;;;;;;;;11.00;10.25;;;;;;;;5055857;28;48377;-88
2021/12/06 09:09:16;;;;;;;;;11.00;9.25;;;;;;;;5051617;28;45765;-84
2021/12/06 09:11:42;;;;;;;;;10.25;8.75;;;;;;;;5070689;28;45514;-82
2021/12/06 09:14:08;;;;;;;;;13.50;12.50;;;;;;;;5051790;28;45553;-83
2021/12/06 09:16:36;;;;;;;;;15.50;13.00;;;;;;;;5051256;28;47102;-82
2021/12/06 09:19:01;;;;;;;;;14.25;11.25;;;;;;;;5069511;28;45774;-83
2021/12/06 09:21:26;;;;;;;;;14.00;13.00;;;;;;;;5069742;28;45500;-83
2021/12/06 09:23:55;;;;;;;;;11.33;10.67;;;;;;;;5088370;28;45003;-83
2021/12/06 09:26:20;;;;;;;;;12.00;11.50;;;;;;;;5088618;28;45349;-83
2021/12/06 09:28:45;;;;;;;;;10.50;9.25;;;;;;;;5087159;28;45119;-83
2021/12/06 09:31:11;;;;;;;;;12.00;10.00;;;;;;;;5079093;28;45350;-84
2021/12/06 09:33:37;;;;;;;;;9.75;9.75;;;;;;;;5069352;28;45321;-84
2021/12/06 09:36:04;;;;;;;;;9.50;8.50;;;;;;;;5051441;28;48167;-83
2021/12/06 09:38:35;;;;;;;;;11.00;10.50;;;;;;;;5051095;28;45993;-84
2021/12/06 09:41:01;;;;;;;;;14.25;13.25;;;;;;;;5070890;28;45805;-84
2021/12/06 09:43:27;;;;;;;;;15.00;13.00;;;;;;;;5051855;28;45414;-83
2021/12/06 09:45:52;;;;;;;;;12.33;12.33;;;;;;;;5070096;28;45397;-84
2021/12/06 09:48:18;;;;;;;;;11.25;9.25;;;;;;;;5054164;28;45022;-84
2021/12/06 09:50:55;;;;;;;;;10.00;9.00;;;;;;;;5069520;28;45516;-84
2021/12/06 09:53:23;;;;;;;;;10.25;7.75;;;;;;;;5069087;28;45497;-83
2021/12/06 09:55:50;;;;;;;;;9.25;7.75;;;;;;;;5069185;28;47207;-84
2021/12/06 09:58:15;;;;;;;;;7.25;7.25;;;;;;;;5075056;28;45463;-84
2021/12/06 10:00:44;;;;;;;;;12.33;12.33;;;;;;;;5072858;28;45388;-85
2021/12/06 10:03:10;;;;;;;;;10.75;9.75;;;;;;;;5049740;28;45459;-84
2021/12/06 10:05:36;;;;;;;;;13.50;12.50;;;;;;;;5049449;28;46663;-84
2021/12/06 10:08:02;;;;;;;;;9.50;8.50;;;;;;;;5031252;28;45340;-84
2021/12/06 10:10:28;;;;;;;;;12.25;9.75;;;;;;;;5049381;28;45500;-85
2021/12/06 10:12:54;;;;;;;;;7.75;7.00;;;;;;;;5031638;28;45530;-85
2021/12/06 10:15:20;;;;;;;;;7.50;7.50;;;;;;;;5030353;28;47945;-84
2021/12/06 10:17:45;;;;;;;;;6.00;5.75;;;;;;;;5034424;28;45421;-85
2021/12/06 10:20:11;;;;;;;;;5.33;5.33;;;;;;;;5052701;28;45649;-84
2021/12/06 10:22:36;;;;;;;;;4.75;4.75;;;;;;;;5033823;28;45516;-84
2021/12/06 10:25:03;;;;;;;;;6.00;5.50;;;;;;;;5052969;28;45656;-85
2021/12/06 10:27:28;;;;;;;;;8.50;8.00;;;;;;;;5052260;28;45358;-85
2021/12/06 10:30:03;;;;;;;;;9.25;9.25;;;;;;;;5034212;28;45467;-85
2021/12/06 10:32:30;;;;;;;;;9.00;8.00;;;;;;;;5052562;28;45637;-84
2021/12/06 10:34:57;;;;;;;;;6.75;6.50;;;;;;;;5034270;28;48392;-84
2021/12/06 10:37:46;;;;;;;;;8.00;8.00;;;;;;;;5051285;28;45434;-84
2021/12/06 10:40:13;;;;;;;;;11.25;8.50;;;;;;;;5042407;28;45426;-84
2021/12/06 10:42:40;;;;;;;;;9.25;8.25;;;;;;;;5034296;28;45351;-84
2021/12/06 10:45:11;;;;;;;;;9.75;9.50;;;;;;;;5062501;28;45719;-84
2021/12/06 10:47:37;;;;;;;;;8.50;7.50;;;;;;;;5072271;28;45504;-84
2021/12/06 10:50:06;;;;;;;;;11.50;11.50;;;;;;;;5053854;28;45454;-84
2021/12/06 10:52:32;;;;;;;;;10.00;9.25;;;;;;;;5071868;28;45326;-84
2021/12/06 10:54:57;;;;;;;;;14.75;12.50;;;;;;;;5072613;28;46403;-84
2021/12/06 10:57:42;;;;;;;;;12.67;12.67;;;;;;;;5053461;28;45761;-84
2021/12/06 11:00:25;;;;;;;;;14.00;13.00;;;;;;;;5053565;28;45626;-84
2021/12/06 11:02:50;;;;;;;;;15.25;13.25;;;;;;;;5072721;28;45828;-84
2021/12/06 11:05:26;;;;;;;;;19.00;15.33;;;;;;;;5053119;28;47132;-85
2021/12/06 11:08:07;;;;;;;;;14.00;13.75;;;;;;;;5054032;28;45535;-84
2021/12/06 11:10:36;;;;;;;;;14.25;14.00;;;;;;;;5053542;28;45587;-84
2021/12/06 11:13:22;;;;;;;;;15.25;13.25;;;;;;;;5072254;28;45402;-84
2021/12/06 11:16:14;;;;;;;;;13.00;13.00;;;;;;;;5072168;28;45340;-84
2021/12/06 11:18:42;;;;;;;;;13.50;11.50;;;;;;;;5067852;28;45931;-84
2021/12/06 11:21:18;;;;;;;;;10.00;9.00;;;;;;;;5071754;28;45550;-84
2021/12/06 11:23:59;;;;;;;;;13.50;11.50;;;;;;;;5048414;28;45736;-84
2021/12/06 11:26:24;;;;;;;;;20.00;15.75;;;;;;;;5071713;28;46591;-84
2021/12/06 11:28:50;;;;;;;;;19.67;15.67;;;;;;;;5053546;28;45899;-84
2021/12/06 11:31:16;;;;;;;;;19.25;15.75;;;;;;;;5072060;28;45312;-84
2021/12/06 11:33:41;;;;;;;;;15.75;15.75;;;;;;;;5073060;28;45374;-84
2021/12/06 11:36:18;;;;;;;;;16.67;15.00;;;;;;;;5071585;28;45679;-84
2021/12/06 11:38:47;;;;;;;;;19.00;16.75;;;;;;;;5071657;28;45849;-84
2021/12/06 11:41:12;;;;;;;;;10.75;9.75;;;;;;;;5053739;28;45793;-84
2021/12/06 11:43:39;;;;;;;;;21.33;20.67;;;;;;;;5053482;28;45500;-84
2021/12/06 11:46:07;;;;;;;;;19.25;17.00;;;;;;;;5035265;28;47075;-85
2021/12/06 11:48:35;;;;;;;;;20.50;18.00;;;;;;;;5050999;28;45880;-84
2021/12/06 11:51:04;;;;;;;;;10.50;9.50;;;;;;;;5032653;28;45372;-85
2021/12/06 11:53:34;;;;;;;;;10.00;9.00;;;;;;;;5051181;28;45596;-85
2021/12/06 11:56:02;;;;;;;;;15.25;11.50;;;;;;;;5051636;28;45771;-84
2021/12/06 11:58:39;;;;;;;;;8.50;7.25;;;;;;;;5032486;28;45526;-84
2021/12/06 12:01:04;;;;;;;;;4.50;4.00;;;;;;;;5051442;28;45772;-84
2021/12/06 12:03:30;;;;;;;;;12.00;10.33;;;;;;;;5032796;28;45503;-85
2021/12/06 12:05:56;;;;;;;;;10.00;9.00;;;;;;;;5050834;28;45775;-85
2021/12/06 12:08:21;;;;;;;;;6.33;6.33;;;;;;;;5050897;28;45531;-85
2021/12/06 12:10:48;;;;;;;;;9.00;8.67;;;;;;;;5051528;28;45387;-84
2021/12/06 12:13:24;;;;;;;;;9.00;7.75;;;;;;;;5032602;28;45490;-84
2021/12/06 12:15:50;;;;;;;;;4.50;4.50;;;;;;;;5067768;28;46501;-85
2021/12/06 12:18:15;;;;;;;;;9.00;8.25;;;;;;;;5060847;28;45277;-83
2021/12/06 12:20:40;;;;;;;;;5.00;4.00;;;;;;;;5052793;28;45467;-84
2021/12/06 12:23:09;;;;;;;;;7.00;6.50;;;;;;;;5053374;28;45548;-85
2021/12/06 12:25:48;;;;;;;;;9.50;6.25;;;;;;;;5070477;28;46486;-83
2021/12/06 12:28:19;;;;;;;;;8.75;8.75;;;;;;;;5052278;28;45979;-84
2021/12/06 12:30:46;;;;;;;;;8.75;8.75;;;;;;;;5071297;28;45474;-85
2021/12/06 12:33:12;;;;;;;;;10.50;9.50;;;;;;;;5052899;28;45506;-84
2021/12/06 12:35:41;;;;;;;;;13.50;9.50;;;;;;;;5043915;28;47377;-84
2021/12/06 12:38:07;;;;;;;;;12.25;10.00;;;;;;;;5070444;28;45631;-84
2021/12/06 12:40:43;;;;;;;;;8.50;7.75;;;;;;;;5069543;28;45569;-84
2021/12/06 12:43:11;;;;;;;;;9.25;8.75;;;;;;;;5076514;28;45369;-85
2021/12/06 12:45:55;;;;;;;;;9.25;7.25;;;;;;;;5081980;28;46192;-85
2021/12/06 12:48:23;;;;;;;;;13.75;11.50;;;;;;;;5056734;28;45528;-84
2021/12/06 12:51:07;;;;;;;;;14.25;13.25;;;;;;;;5082523;28;44943;-84
2021/12/06 12:53:47;;;;;;;;;11.75;7.75;;;;;;;;5074724;28;45289;-83
2021/12/06 12:56:16;;;;;;;;;5.00;4.00;;;;;;;;5068227;28;47166;-84
2021/12/06 12:58:42;;;;;;;;;5.00;5.00;;;;;;;;5070246;28;45476;-84
2021/12/06 13:01:09;;;;;;;;;8.00;6.00;;;;;;;;5089076;28;45293;-84
2021/12/06 13:03:43;;;;;;;;;7.75;6.75;;;;;;;;5089132;28;45020;-85
2021/12/06 13:06:17;;;;;;;;;4.00;4.00;;;;;;;;5088466;28;46052;-84
2021/12/06 13:08:43;;;;;;;;;7.00;6.75;;;;;;;;5070413;28;45146;-84
2021/12/06 13:11:08;;;;;;;;;7.50;6.50;;;;;;;;5088430;28;45154;-84
2021/12/06 13:13:44;;;;;;;;;7.25;7.00;;;;;;;;5069803;28;45039;-83
2021/12/06 13:17:06;;;;;;;;;9.75;9.25;;;;;;;;5089161;28;45298;-83
2021/12/06 13:19:40;;;;;;;;;10.00;7.00;;;;;;;;5076926;28;45198;-85
2021/12/06 13:22:09;;;;;;;;;9.75;8.50;;;;;;;;5087982;28;45134;-83
2021/12/06 13:24:45;;;;;;;;;7.00;7.00;;;;;;;;5066901;28;45191;-84
2021/12/06 13:27:26;;;;;;;;;9.25;8.75;;;;;;;;5089064;28;45518;-84
2021/12/06 13:29:55;;;;;;;;;9.00;9.00;;;;;;;;5084578;28;45537;-84
2021/12/06 13:32:39;;;;;;;;;10.00;9.00;;;;;;;;5069657;28;45010;-84
2021/12/06 13:35:17;;;;;;;;;9.75;9.75;;;;;;;;5069593;28;45005;-84
2021/12/06 13:37:42;;;;;;;;;8.00;7.50;;;;;;;;5069318;28;46257;-85
2021/12/06 13:40:15;;;;;;;;;6.00;5.00;;;;;;;;5070057;28;45443;-84
2021/12/06 13:42:42;;;;;;;;;4.50;4.25;;;;;;;;5053125;28;45340;-85
2021/12/06 13:45:18;;;;;;;;;5.50;4.25;;;;;;;;5051705;28;45387;-83
2021/12/06 13:47:46;;;;;;;;;8.50;7.50;;;;;;;;5067744;28;47497;-85
2021/12/06 13:50:13;;;;;;;;;7.75;7.00;;;;;;;;5052416;28;45915;-85
2021/12/06 13:52:41;;;;;;;;;6.50;5.25;;;;;;;;5072540;28;45447;-84
2021/12/06 13:55:37;;;;;;;;;3.50;2.50;;;;;;;;5054786;28;45600;-85
2021/12/06 13:58:07;;;;;;;;;3.50;3.00;;;;;;;;5052111;28;47599;-85
2021/12/06 14:00:42;;;;;;;;;2.75;2.00;;;;;;;;5053912;28;45785;-84
2021/12/06 14:03:12;;;;;;;;;3.50;3.00;;;;;;;;5053763;28;45482;-85
2021/12/06 14:05:39;;;;;;;;;3.00;2.00;;;;;;;;5054175;28;45521;-85
2021/12/06 14:08:04;;;;;;;;;3.00;3.00;;;;;;;;5054693;28;47348;-85
2021/12/06 14:10:32;;;;;;;;;3.00;2.00;;;;;;;;5072029;28;45296;-85
2021/12/06 14:12:57;;;;;;;;;2.00;2.00;;;;;;;;5054427;28;45402;-85
2021/12/06 14:16:07;;;;;;;;;2.67;2.00;;;;;;;;5053734;28;45562;-84
2021/12/06 14:18:14;;;;;;;;;4.00;3.75;;;;;;;;5060647;28;45634;-85
2021/12/06 14:20:45;;;;;;;;;3.00;3.00;;;;;;;;5071964;28;45907;-85
2021/12/06 14:23:12;;;;;;;;;4.25;4.25;;;;;;;;5072550;28;45340;-85
2021/12/06 14:25:39;;;;;;;;;3.75;3.50;;;;;;;;5053711;28;45596;-85
2021/12/06 14:28:11;;;;;;;;;2.50;2.00;;;;;;;;5054466;28;48507;-84
2021/12/06 14:30:37;;;;;;;;;4.75;3.75;;;;;;;;5047960;28;45877;-85
2021/12/06 14:33:05;;;;;;;;;3.67;3.00;;;;;;;;5054185;28;45485;-85
2021/12/06 14:35:31;;;;;;;;;3.50;3.00;;;;;;;;5053425;28;45684;-85
2021/12/06 14:37:56;;;;;;;;;3.00;3.00;;;;;;;;5054086;28;47193;-84
2021/12/06 14:40:23;;;;;;;;;4.00;3.00;;;;;;;;5052907;28;45760;-85
2021/12/06 14:42:48;;;;;;;;;4.50;4.00;;;;;;;;5053769;28;45660;-85
2021/12/06 14:45:15;;;;;;;;;2.00;2.00;;;;;;;;5053930;28;45607;-85
2021/12/06 14:47:43;;;;;;;;;4.75;2.00;;;;;;;;5053067;28;47529;-85
2021/12/06 14:50:20;;;;;;;;;2.75;2.00;;;;;;;;5053522;28;45780;-85
2021/12/06 14:52:47;;;;;;;;;4.00;3.25;;;;;;;;5072380;28;45548;-85
2021/12/06 14:55:29;;;;;;;;;4.00;3.00;;;;;;;;5071662;28;45402;-85